Airfield :
LOGIN :

Register | Disclaimer

   EN    FR    IT 

 










Legend :    VFR   Marginal VFR   IFR   Intensive IFR   Very Intensive IFR
Visi :
Ceiling :
>= 8 km
>= 3000ft
5 to 8 km
1000 to 3000 ft
1500m to 5 km
500 to 1000 ft
800 to 1500m
200 to 500 ft
< 800m
< 200 ft
Symbols :   Thunderstorms  Fog  Heavy snow  Heavy precipitations  Wind > 20 kt
SIGMETs :     Misc.  Thunderstorms  Icing  Turbulence  Mountain Waves  Volcanic Ashes







- Airport Elevation : 209 ft
- IATA code : CLY
- Download approach charts


LFKC - Calvi

CURRENT METAR :
  • 220000Z AUTO 19005KT 140V240 CAVOK 13/07 Q1006

EXPIRED METARs :
  • 212330Z AUTO VRB03KT CAVOK 14/07 Q1007
  • 212300Z AUTO 21005KT CAVOK 14/07 Q1007
  • 212230Z AUTO 17005KT 140V200 CAVOK 15/07 Q1008
  • 212200Z AUTO 19005KT CAVOK 14/07 Q1008
  • 212130Z AUTO 16005KT CAVOK 14/07 Q1009

TAF TAF LFKC
Valid from the 21 at 15:00 until the 22 at 15:00 UTC


211400Z 2115/2215 35010KT CAVOK TX23/2212Z TN13/2204Z
BECMG 2120/2122 18006KT
BECMG 2207/2209 35008KT
TEMPO 2212/2215 02015KT
ATIS : +33 4 95 65 82 49
No reported NOTAMs for that airfield.
2 SIGMETs reported for the Marseille FIR (LFMM) :
 
Severe turbulence
LFMM SIGMET 9 VALID 220000/220400 LFPW
LFMM MARSEILLE FIR/UIR SEV TURB FCST WI N4430 E00700 - N4400 E00700 - N4315 E00945 - N4115 E00945 - N4115 E00800 - N4245 E00800 - N4245 E00545 - N4430 E00700 SFC/FL080 STNR NC=
Severe turbulence
LFMM SIGMET 8 VALID 212000/220000 LFPW
LFMM MARSEILLE FIR/UIR SEV TURB FCST WI N4430 E00700 - N4400 E00700 - N4315 E00945 - N4115 E00945 - N4115 E00800 - N4245 E00800 - N4245 E00545 - N4430 E00700 SFC/FL080 STNR NC=



MET'MAP, your aeronautical weather chart ! - Copyright ORBIFLY December 2007 - Disclaimer

ORBIFLY MET'MAP TEAM :

Programming & Development : Alexandra Zaïnal
Concept & Development : Baudouin d'Aumeries
Co-Development & Prog : Marc-Olivier Méhu
Technical & hardware support : Manuel Goepfert

Contact : metmap@orbifly.com




SOURCES & CREDITS :

   NOAA